Terminal Aerodrome Forecast
Issued by NWS

Home | Current Version | Previous Version | Text Only | Print | Product List | Glossary On
Versions: 1 2 3 4 5 6 7 8 9 10 11 12 13 14 15 16 17 18 19 20
000
FTUS43 KDLH 271135
TAFBRD
TAF
KBRD 271135Z 2712/2812 16005KT P6SM -SHRA OVC100
     FM271900 16008KT P6SM -SHRA VCTS SCT035CB BKN080
      TEMPO 2719/2723 5SM TSRA BKN035CB
     FM280200 VRB02KT P6SM FEW050
     FM280700 00000KT 3SM BR SKC=

USA.gov is the U.S. government's official web portal to all federal, state and local government web resources and services.